Aviation Digital Data Service (ADDS)

Output produced by METARs form (1855 UTC 18 June 2019)
found at http://www.aviationweather.gov/metar/data/
 
VNKT 181820Z 11004KT 7000 FEW015 SCT100 21/20 Q1011 NOSIG
TAF VNKT 181700Z 1818/1918 34004KT 6000 FEW015 SCT025 BKN100 
     BECMG 1900/1902 00000KT 4000 -RA/BR FEW010 SCT025 BKN100 
     BECMG 1904/1905 15004KT 6000 FEW015 SCT100 
     BECMG 1907/1909 26010KT 8000 FEW020 SCT025 BKN100 
     BECMG 1908/1914 VRB15KT -TSRA 3000 FEW025CB OVC090 
     BECMG 1914/1915 22004KT 6000 FEW015 SCT100